CheckWX is a tool to help pilots better visualize weather data.  It is not intended as a substitute for an official pre-flight weather briefing.

06:09:18 UTC

KBFI METAR
Boeing Field / King County International Airport
Seattle, Washington, USA
Current

16 mins ago

KBFI 230553Z 19004KT 10SM OVC026 12/09 A3021 RMK AO2 SLP229 60007 T01170089 10117 20106 56007
Observed
Apr-23 @ 05:53 UTC
Wind
  • 190° at 4 KTS
Visibility
10 SM
Flight Rules
MVFR
Cloud Levels
  • Overcast at 2,600' AGL
Temperature
12°C / 54°F
Dewpoint
C / 48°F
Humidity
82%
Altimeter
30.21" Hg
Pressure
1023.02 hPa
Previous

1 hour ago

KBFI 230453Z 18009KT 160V230 10SM SCT010 OVC028 12/09 A3021 RMK AO2 SLP229 T01170089
Observed
Apr-23 @ 04:53 UTC
Wind
  • 180° at 9 KTS
Visibility
10 SM
Flight Rules
MVFR
Cloud Levels
  • Scattered at 1,000' AGL
  • Overcast at 2,800' AGL
Temperature
12°C / 54°F
Dewpoint
C / 48°F
Humidity
82%
Altimeter
30.21" Hg
Pressure
1023.02 hPa
Previous

2 hours ago

KBFI 230353Z 17007KT 10SM SCT010 BKN018 OVC028 12/09 A3021 RMK AO2 SLP229 T01170094
Observed
Apr-23 @ 03:53 UTC
Wind
  • 170° at 7 KTS
Visibility
10 SM
Flight Rules
MVFR
Cloud Levels
  • Scattered at 1,000' AGL
  • Broken at 1,800' AGL
  • Overcast at 2,800' AGL
Temperature
12°C / 54°F
Dewpoint
C / 48°F
Humidity
82%
Altimeter
30.21" Hg
Pressure
1023.02 hPa